SALOWS 191720Z 36005KT 330V030 9999 FEW060 27/10 Q1015 NOSIG
FTLOWS 191715Z 1918/2018 01007KT CAVOK TX29/2014Z TN15/2003Z BECMG 1918/1920 15005KT BECMG 2007/2009 32005KT 9999 FEW060 SCT300 TEMPO 2010/2017 01009KT